LFLC/CFE METAR and TAF weather

Enter ICAO airport designator
Station Type Date Time Source
LFLC METAR 2018/12/13 23:00 UTC NOAA

LFLC 132300Z AUTO 15003KT 110V170 5000 BR OVC004 M00/M01 Q1011 NOSIG


Station Type Date Time Source
LFLC Decoded METAR 2018/12/13 23:00 UTC NOAA

Clermont-Ferrand, France (LFLC) 45-47N 003-10E 330M
Dec 13, 2018 - 06:00 PM EST / 2018.12.13 2300 UTC
Wind: from the SSE (150 degrees) at 3 MPH (3 KT) (direction variable):0
Visibility: 3 mile(s):0
Sky conditions: overcast
Weather: mist
Temperature: 32 F (0 C)
Dew Point: 30 F (-1 C)
Relative Humidity: 92%
Pressure (altimeter): 29.85 in. Hg (1011 hPa)
ob: LFLC 132300Z AUTO 15003KT 110V170 5000 BR OVC004 M00/M01 Q1011 NOSIG
cycle: 23

Station Type Date Time Source
LFLC TAF 2018/12/13 21:21 UTC NOAA

TAF LFLC 132000Z 1321/1421 36004KT 4000 BR OVC004
TEMPO 1402/1410 2000 BR OVC002
BECMG 1410/1413 BKN016


Example: see airport list